sensor_id;sensor_type;location;lat;lon;timestamp;P1;durP1;ratioP1;P2;durP2;ratioP2
48367;SDS011;34173;47.446;18.912;2022-10-20T00:01:13;7.12;;;3.60;;
48367;SDS011;34173;47.446;18.912;2022-10-20T00:03:41;8.48;;;3.78;;
48367;SDS011;34173;47.446;18.912;2022-10-20T00:06:10;10.73;;;4.18;;
48367;SDS011;34173;47.446;18.912;2022-10-20T00:08:39;6.87;;;3.80;;
48367;SDS011;34173;47.446;18.912;2022-10-20T00:11:08;5.90;;;3.55;;
48367;SDS011;34173;47.446;18.912;2022-10-20T00:13:36;10.30;;;3.70;;
48367;SDS011;34173;47.446;18.912;2022-10-20T00:16:05;8.13;;;3.80;;
48367;SDS011;34173;47.446;18.912;2022-10-20T00:18:32;6.57;;;3.75;;
48367;SDS011;34173;47.446;18.912;2022-10-20T00:21:03;5.97;;;3.80;;
48367;SDS011;34173;47.446;18.912;2022-10-20T00:23:32;6.32;;;3.65;;
48367;SDS011;34173;47.446;18.912;2022-10-20T00:26:03;8.05;;;3.87;;
48367;SDS011;34173;47.446;18.912;2022-10-20T00:28:32;6.35;;;3.70;;
48367;SDS011;34173;47.446;18.912;2022-10-20T00:31:00;7.60;;;4.07;;
48367;SDS011;34173;47.446;18.912;2022-10-20T00:33:29;7.55;;;3.87;;
48367;SDS011;34173;47.446;18.912;2022-10-20T00:36:00;8.00;;;4.03;;
48367;SDS011;34173;47.446;18.912;2022-10-20T00:38:29;8.07;;;4.18;;
48367;SDS011;34173;47.446;18.912;2022-10-20T00:40:57;7.75;;;3.47;;
48367;SDS011;34173;47.446;18.912;2022-10-20T00:43:42;7.20;;;3.55;;
48367;SDS011;34173;47.446;18.912;2022-10-20T00:46:25;6.50;;;3.37;;
48367;SDS011;34173;47.446;18.912;2022-10-20T00:51:45;8.70;;;3.33;;
48367;SDS011;34173;47.446;18.912;2022-10-20T00:54:14;10.20;;;3.87;;
48367;SDS011;34173;47.446;18.912;2022-10-20T00:56:44;9.50;;;3.75;;
48367;SDS011;34173;47.446;18.912;2022-10-20T00:59:14;8.05;;;3.80;;
48367;SDS011;34173;47.446;18.912;2022-10-20T01:01:43;6.70;;;3.80;;
48367;SDS011;34173;47.446;18.912;2022-10-20T01:04:11;7.30;;;3.45;;
48367;SDS011;34173;47.446;18.912;2022-10-20T01:06:39;10.48;;;4.07;;
48367;SDS011;34173;47.446;18.912;2022-10-20T01:09:07;7.30;;;3.97;;
48367;SDS011;34173;47.446;18.912;2022-10-20T01:11:50;7.22;;;3.87;;
48367;SDS011;34173;47.446;18.912;2022-10-20T01:25:36;6.32;;;3.83;;
48367;SDS011;34173;47.446;18.912;2022-10-20T01:28:08;6.72;;;3.95;;
48367;SDS011;34173;47.446;18.912;2022-10-20T01:30:52;8.75;;;3.70;;
48367;SDS011;34173;47.446;18.912;2022-10-20T01:34:07;10.40;;;4.12;;
48367;SDS011;34173;47.446;18.912;2022-10-20T01:36:27;8.65;;;4.20;;
48367;SDS011;34173;47.446;18.912;2022-10-20T01:42:06;7.18;;;3.85;;
48367;SDS011;34173;47.446;18.912;2022-10-20T01:44:26;8.32;;;4.20;;
48367;SDS011;34173;47.446;18.912;2022-10-20T01:46:55;7.70;;;4.12;;
48367;SDS011;34173;47.446;18.912;2022-10-20T01:49:23;7.47;;;3.87;;
48367;SDS011;34173;47.446;18.912;2022-10-20T01:51:51;9.93;;;3.70;;
48367;SDS011;34173;47.446;18.912;2022-10-20T01:54:20;6.03;;;3.87;;
48367;SDS011;34173;47.446;18.912;2022-10-20T01:59:45;7.85;;;3.78;;
48367;SDS011;34173;47.446;18.912;2022-10-20T02:08:15;9.27;;;3.28;;
48367;SDS011;34173;47.446;18.912;2022-10-20T02:10:46;6.20;;;3.50;;
48367;SDS011;34173;47.446;18.912;2022-10-20T02:13:16;6.82;;;3.50;;
48367;SDS011;34173;47.446;18.912;2022-10-20T02:15:46;5.65;;;3.47;;
48367;SDS011;34173;47.446;18.912;2022-10-20T02:18:17;7.68;;;3.97;;
48367;SDS011;34173;47.446;18.912;2022-10-20T02:20:49;7.15;;;4.00;;
48367;SDS011;34173;47.446;18.912;2022-10-20T02:23:17;8.60;;;3.37;;
48367;SDS011;34173;47.446;18.912;2022-10-20T02:25:48;5.72;;;3.22;;
48367;SDS011;34173;47.446;18.912;2022-10-20T02:28:17;8.57;;;3.40;;
48367;SDS011;34173;47.446;18.912;2022-10-20T02:30:46;6.62;;;3.90;;
48367;SDS011;34173;47.446;18.912;2022-10-20T02:33:14;9.95;;;4.03;;
48367;SDS011;34173;47.446;18.912;2022-10-20T02:35:48;6.50;;;3.85;;
48367;SDS011;34173;47.446;18.912;2022-10-20T02:38:19;7.72;;;4.40;;
48367;SDS011;34173;47.446;18.912;2022-10-20T02:40:47;6.37;;;3.70;;
48367;SDS011;34173;47.446;18.912;2022-10-20T02:43:15;6.85;;;3.90;;
48367;SDS011;34173;47.446;18.912;2022-10-20T02:45:42;9.93;;;4.20;;
48367;SDS011;34173;47.446;18.912;2022-10-20T02:48:10;8.45;;;4.20;;
48367;SDS011;34173;47.446;18.912;2022-10-20T02:50:37;5.70;;;3.67;;
48367;SDS011;34173;47.446;18.912;2022-10-20T02:53:05;6.90;;;4.15;;
48367;SDS011;34173;47.446;18.912;2022-10-20T02:55:32;9.02;;;4.20;;
48367;SDS011;34173;47.446;18.912;2022-10-20T02:57:59;9.57;;;4.12;;
48367;SDS011;34173;47.446;18.912;2022-10-20T03:00:27;8.65;;;4.37;;
48367;SDS011;34173;47.446;18.912;2022-10-20T03:02:57;6.85;;;3.80;;
48367;SDS011;34173;47.446;18.912;2022-10-20T03:05:24;7.93;;;4.10;;
48367;SDS011;34173;47.446;18.912;2022-10-20T03:07:52;8.40;;;3.97;;
48367;SDS011;34173;47.446;18.912;2022-10-20T03:10:20;8.52;;;3.75;;
48367;SDS011;34173;47.446;18.912;2022-10-20T03:12:48;5.47;;;3.58;;
48367;SDS011;34173;47.446;18.912;2022-10-20T03:15:16;8.95;;;4.00;;
48367;SDS011;34173;47.446;18.912;2022-10-20T03:17:43;10.55;;;4.22;;
48367;SDS011;34173;47.446;18.912;2022-10-20T03:20:11;8.43;;;4.07;;
48367;SDS011;34173;47.446;18.912;2022-10-20T03:22:38;7.47;;;4.00;;
48367;SDS011;34173;47.446;18.912;2022-10-20T03:25:06;10.18;;;4.40;;
48367;SDS011;34173;47.446;18.912;2022-10-20T03:27:34;7.85;;;3.67;;
48367;SDS011;34173;47.446;18.912;2022-10-20T03:30:02;6.07;;;3.62;;
48367;SDS011;34173;47.446;18.912;2022-10-20T03:32:30;9.10;;;4.00;;
48367;SDS011;34173;47.446;18.912;2022-10-20T03:34:58;8.00;;;4.30;;
48367;SDS011;34173;47.446;18.912;2022-10-20T03:37:27;7.45;;;4.03;;
48367;SDS011;34173;47.446;18.912;2022-10-20T03:39:55;6.80;;;4.07;;
48367;SDS011;34173;47.446;18.912;2022-10-20T03:42:23;7.00;;;3.80;;
48367;SDS011;34173;47.446;18.912;2022-10-20T03:44:51;8.63;;;4.43;;
48367;SDS011;34173;47.446;18.912;2022-10-20T03:47:18;7.55;;;4.35;;
48367;SDS011;34173;47.446;18.912;2022-10-20T03:49:46;10.43;;;4.28;;
48367;SDS011;34173;47.446;18.912;2022-10-20T03:52:13;9.52;;;4.07;;
48367;SDS011;34173;47.446;18.912;2022-10-20T03:54:41;7.25;;;3.75;;
48367;SDS011;34173;47.446;18.912;2022-10-20T03:57:08;5.62;;;3.40;;
48367;SDS011;34173;47.446;18.912;2022-10-20T03:59:36;6.93;;;3.20;;
48367;SDS011;34173;47.446;18.912;2022-10-20T04:02:03;14.82;;;3.45;;
48367;SDS011;34173;47.446;18.912;2022-10-20T04:04:31;6.60;;;2.90;;
48367;SDS011;34173;47.446;18.912;2022-10-20T04:06:58;11.40;;;2.90;;
48367;SDS011;34173;47.446;18.912;2022-10-20T04:09:26;5.55;;;3.08;;
48367;SDS011;34173;47.446;18.912;2022-10-20T04:11:53;8.95;;;3.65;;
48367;SDS011;34173;47.446;18.912;2022-10-20T04:14:21;11.90;;;4.47;;
48367;SDS011;34173;47.446;18.912;2022-10-20T04:16:48;8.38;;;4.20;;
48367;SDS011;34173;47.446;18.912;2022-10-20T04:19:16;6.55;;;3.67;;
48367;SDS011;34173;47.446;18.912;2022-10-20T04:21:43;9.73;;;4.95;;
48367;SDS011;34173;47.446;18.912;2022-10-20T04:24:10;10.57;;;4.65;;
48367;SDS011;34173;47.446;18.912;2022-10-20T04:26:38;12.90;;;4.95;;
48367;SDS011;34173;47.446;18.912;2022-10-20T04:29:06;6.55;;;3.37;;
48367;SDS011;34173;47.446;18.912;2022-10-20T04:31:33;9.63;;;3.80;;
48367;SDS011;34173;47.446;18.912;2022-10-20T04:34:01;8.85;;;3.55;;
48367;SDS011;34173;47.446;18.912;2022-10-20T04:36:28;10.10;;;4.45;;
48367;SDS011;34173;47.446;18.912;2022-10-20T04:38:55;10.13;;;4.12;;
48367;SDS011;34173;47.446;18.912;2022-10-20T04:41:23;7.62;;;3.90;;
48367;SDS011;34173;47.446;18.912;2022-10-20T04:43:50;9.57;;;3.90;;
48367;SDS011;34173;47.446;18.912;2022-10-20T04:46:18;11.15;;;4.57;;
48367;SDS011;34173;47.446;18.912;2022-10-20T04:48:46;8.82;;;4.22;;
48367;SDS011;34173;47.446;18.912;2022-10-20T04:51:14;10.45;;;4.43;;
48367;SDS011;34173;47.446;18.912;2022-10-20T04:53:41;6.65;;;3.37;;
48367;SDS011;34173;47.446;18.912;2022-10-20T04:56:10;8.07;;;3.30;;
48367;SDS011;34173;47.446;18.912;2022-10-20T04:58:39;6.50;;;3.35;;
48367;SDS011;34173;47.446;18.912;2022-10-20T05:01:08;7.53;;;4.00;;
48367;SDS011;34173;47.446;18.912;2022-10-20T05:03:36;7.62;;;3.20;;
48367;SDS011;34173;47.446;18.912;2022-10-20T05:06:10;9.23;;;3.60;;
48367;SDS011;34173;47.446;18.912;2022-10-20T05:08:39;7.97;;;4.07;;
48367;SDS011;34173;47.446;18.912;2022-10-20T05:11:07;8.23;;;3.87;;
48367;SDS011;34173;47.446;18.912;2022-10-20T05:13:35;8.95;;;4.60;;
48367;SDS011;34173;47.446;18.912;2022-10-20T05:16:04;10.35;;;6.47;;
48367;SDS011;34173;47.446;18.912;2022-10-20T05:18:32;12.73;;;5.82;;
48367;SDS011;34173;47.446;18.912;2022-10-20T05:21:07;14.30;;;5.82;;
48367;SDS011;34173;47.446;18.912;2022-10-20T05:23:40;12.27;;;6.50;;
48367;SDS011;34173;47.446;18.912;2022-10-20T05:26:09;15.18;;;6.07;;
48367;SDS011;34173;47.446;18.912;2022-10-20T05:28:42;15.18;;;7.65;;
48367;SDS011;34173;47.446;18.912;2022-10-20T05:31:10;38.15;;;13.27;;
48367;SDS011;34173;47.446;18.912;2022-10-20T05:33:42;28.65;;;12.35;;
48367;SDS011;34173;47.446;18.912;2022-10-20T05:36:15;27.35;;;13.68;;
48367;SDS011;34173;47.446;18.912;2022-10-20T05:38:48;27.23;;;13.05;;
48367;SDS011;34173;47.446;18.912;2022-10-20T05:41:18;21.87;;;11.63;;
48367;SDS011;34173;47.446;18.912;2022-10-20T05:43:57;22.13;;;11.88;;
48367;SDS011;34173;47.446;18.912;2022-10-20T05:46:27;22.37;;;11.35;;
48367;SDS011;34173;47.446;18.912;2022-10-20T05:48:58;19.02;;;10.98;;
48367;SDS011;34173;47.446;18.912;2022-10-20T05:51:28;15.02;;;6.97;;
48367;SDS011;34173;47.446;18.912;2022-10-20T05:53:58;20.48;;;8.10;;
48367;SDS011;34173;47.446;18.912;2022-10-20T05:56:27;12.55;;;7.00;;
48367;SDS011;34173;47.446;18.912;2022-10-20T05:58:55;15.13;;;7.65;;
48367;SDS011;34173;47.446;18.912;2022-10-20T06:01:27;16.58;;;7.40;;
48367;SDS011;34173;47.446;18.912;2022-10-20T06:04:06;14.13;;;7.55;;
48367;SDS011;34173;47.446;18.912;2022-10-20T06:06:36;16.80;;;7.80;;
48367;SDS011;34173;47.446;18.912;2022-10-20T06:09:05;16.70;;;7.62;;
48367;SDS011;34173;47.446;18.912;2022-10-20T06:11:34;16.02;;;6.35;;
48367;SDS011;34173;47.446;18.912;2022-10-20T06:14:06;11.70;;;6.25;;
48367;SDS011;34173;47.446;18.912;2022-10-20T06:16:34;14.52;;;6.15;;
48367;SDS011;34173;47.446;18.912;2022-10-20T06:19:02;13.18;;;6.28;;
48367;SDS011;34173;47.446;18.912;2022-10-20T06:21:30;11.02;;;5.30;;
48367;SDS011;34173;47.446;18.912;2022-10-20T06:23:59;9.30;;;5.28;;
48367;SDS011;34173;47.446;18.912;2022-10-20T06:26:28;9.10;;;4.85;;
48367;SDS011;34173;47.446;18.912;2022-10-20T06:28:56;11.38;;;4.90;;
48367;SDS011;34173;47.446;18.912;2022-10-20T06:31:31;8.52;;;4.15;;
48367;SDS011;34173;47.446;18.912;2022-10-20T06:34:07;8.60;;;4.25;;
48367;SDS011;34173;47.446;18.912;2022-10-20T06:36:36;7.12;;;3.85;;
48367;SDS011;34173;47.446;18.912;2022-10-20T06:39:05;6.70;;;3.75;;
48367;SDS011;34173;47.446;18.912;2022-10-20T06:41:33;9.57;;;4.15;;
48367;SDS011;34173;47.446;18.912;2022-10-20T06:44:02;9.90;;;5.35;;
48367;SDS011;34173;47.446;18.912;2022-10-20T06:46:30;10.02;;;4.68;;
48367;SDS011;34173;47.446;18.912;2022-10-20T06:48:59;13.60;;;5.05;;
48367;SDS011;34173;47.446;18.912;2022-10-20T06:51:27;7.32;;;4.62;;
48367;SDS011;34173;47.446;18.912;2022-10-20T06:53:55;7.70;;;5.00;;
48367;SDS011;34173;47.446;18.912;2022-10-20T06:56:23;11.73;;;5.18;;
48367;SDS011;34173;47.446;18.912;2022-10-20T06:58:53;11.52;;;4.93;;
48367;SDS011;34173;47.446;18.912;2022-10-20T07:01:22;10.30;;;5.28;;
48367;SDS011;34173;47.446;18.912;2022-10-20T07:04:04;11.82;;;5.47;;
48367;SDS011;34173;47.446;18.912;2022-10-20T07:06:34;12.93;;;5.55;;
48367;SDS011;34173;47.446;18.912;2022-10-20T07:09:03;14.18;;;5.40;;
48367;SDS011;34173;47.446;18.912;2022-10-20T07:11:34;10.65;;;5.43;;
48367;SDS011;34173;47.446;18.912;2022-10-20T07:14:02;12.65;;;5.53;;
48367;SDS011;34173;47.446;18.912;2022-10-20T07:16:31;9.95;;;4.62;;
48367;SDS011;34173;47.446;18.912;2022-10-20T07:19:00;9.80;;;4.90;;
48367;SDS011;34173;47.446;18.912;2022-10-20T07:21:28;9.00;;;4.57;;
48367;SDS011;34173;47.446;18.912;2022-10-20T07:26:31;10.00;;;4.75;;
48367;SDS011;34173;47.446;18.912;2022-10-20T07:29:01;9.05;;;4.93;;
48367;SDS011;34173;47.446;18.912;2022-10-20T07:31:30;10.68;;;4.78;;
48367;SDS011;34173;47.446;18.912;2022-10-20T07:33:59;9.77;;;5.15;;
48367;SDS011;34173;47.446;18.912;2022-10-20T07:36:46;8.10;;;4.32;;
48367;SDS011;34173;47.446;18.912;2022-10-20T07:39:15;9.13;;;4.60;;
48367;SDS011;34173;47.446;18.912;2022-10-20T07:41:42;8.18;;;4.68;;
48367;SDS011;34173;47.446;18.912;2022-10-20T07:44:13;6.65;;;3.80;;
48367;SDS011;34173;47.446;18.912;2022-10-20T07:46:41;8.38;;;3.97;;
48367;SDS011;34173;47.446;18.912;2022-10-20T07:49:08;10.88;;;4.60;;
48367;SDS011;34173;47.446;18.912;2022-10-20T07:51:56;9.38;;;4.78;;
48367;SDS011;34173;47.446;18.912;2022-10-20T07:54:23;9.05;;;4.53;;
48367;SDS011;34173;47.446;18.912;2022-10-20T07:56:50;9.27;;;4.18;;
48367;SDS011;34173;47.446;18.912;2022-10-20T07:59:18;8.57;;;3.28;;
48367;SDS011;34173;47.446;18.912;2022-10-20T08:01:45;6.95;;;3.65;;
48367;SDS011;34173;47.446;18.912;2022-10-20T08:04:13;7.72;;;3.80;;
48367;SDS011;34173;47.446;18.912;2022-10-20T08:06:40;7.65;;;3.60;;
48367;SDS011;34173;47.446;18.912;2022-10-20T08:09:08;6.97;;;3.42;;
48367;SDS011;34173;47.446;18.912;2022-10-20T08:11:35;7.60;;;3.30;;
48367;SDS011;34173;47.446;18.912;2022-10-20T08:14:03;8.35;;;3.78;;
48367;SDS011;34173;47.446;18.912;2022-10-20T08:16:30;7.75;;;3.50;;
48367;SDS011;34173;47.446;18.912;2022-10-20T08:19:12;7.30;;;3.45;;
48367;SDS011;34173;47.446;18.912;2022-10-20T08:21:52;8.90;;;3.40;;
48367;SDS011;34173;47.446;18.912;2022-10-20T08:24:19;5.25;;;3.33;;
48367;SDS011;34173;47.446;18.912;2022-10-20T08:26:47;8.10;;;3.37;;
48367;SDS011;34173;47.446;18.912;2022-10-20T08:29:14;6.87;;;3.25;;
48367;SDS011;34173;47.446;18.912;2022-10-20T08:31:42;5.93;;;3.15;;
48367;SDS011;34173;47.446;18.912;2022-10-20T08:34:10;7.95;;;3.78;;
48367;SDS011;34173;47.446;18.912;2022-10-20T08:36:37;7.75;;;3.42;;
48367;SDS011;34173;47.446;18.912;2022-10-20T08:39:05;6.78;;;3.15;;
48367;SDS011;34173;47.446;18.912;2022-10-20T08:41:36;6.97;;;3.90;;
48367;SDS011;34173;47.446;18.912;2022-10-20T08:44:31;9.00;;;3.45;;
48367;SDS011;34173;47.446;18.912;2022-10-20T08:47:01;7.97;;;3.80;;
48367;SDS011;34173;47.446;18.912;2022-10-20T08:49:30;6.45;;;3.42;;
48367;SDS011;34173;47.446;18.912;2022-10-20T08:51:59;7.20;;;3.78;;
48367;SDS011;34173;47.446;18.912;2022-10-20T08:54:27;6.45;;;3.72;;
48367;SDS011;34173;47.446;18.912;2022-10-20T08:56:55;6.93;;;3.55;;
48367;SDS011;34173;47.446;18.912;2022-10-20T09:01:55;6.20;;;3.20;;
48367;SDS011;34173;47.446;18.912;2022-10-20T09:04:25;6.25;;;3.37;;
48367;SDS011;34173;47.446;18.912;2022-10-20T09:06:56;7.20;;;3.55;;
48367;SDS011;34173;47.446;18.912;2022-10-20T09:09:27;5.97;;;3.30;;
48367;SDS011;34173;47.446;18.912;2022-10-20T09:12:00;10.45;;;3.35;;
48367;SDS011;34173;47.446;18.912;2022-10-20T09:14:32;4.90;;;2.12;;
48367;SDS011;34173;47.446;18.912;2022-10-20T09:17:01;3.58;;;2.00;;
48367;SDS011;34173;47.446;18.912;2022-10-20T09:19:33;2.90;;;1.58;;
48367;SDS011;34173;47.446;18.912;2022-10-20T09:22:05;4.97;;;2.30;;
48367;SDS011;34173;47.446;18.912;2022-10-20T09:24:33;5.70;;;2.15;;
48367;SDS011;34173;47.446;18.912;2022-10-20T09:29:46;3.25;;;1.80;;
48367;SDS011;34173;47.446;18.912;2022-10-20T09:32:18;6.65;;;1.65;;
48367;SDS011;34173;47.446;18.912;2022-10-20T09:35:19;8.02;;;1.62;;
48367;SDS011;34173;47.446;18.912;2022-10-20T09:37:50;3.12;;;1.70;;
48367;SDS011;34173;47.446;18.912;2022-10-20T09:40:20;4.87;;;1.50;;
48367;SDS011;34173;47.446;18.912;2022-10-20T09:42:50;4.00;;;1.75;;
48367;SDS011;34173;47.446;18.912;2022-10-20T09:45:30;4.15;;;1.90;;
48367;SDS011;34173;47.446;18.912;2022-10-20T09:48:00;9.65;;;2.10;;
48367;SDS011;34173;47.446;18.912;2022-10-20T09:50:34;3.60;;;2.08;;
48367;SDS011;34173;47.446;18.912;2022-10-20T09:53:04;3.35;;;1.67;;
48367;SDS011;34173;47.446;18.912;2022-10-20T09:55:34;5.37;;;2.90;;
48367;SDS011;34173;47.446;18.912;2022-10-20T09:58:03;7.80;;;2.15;;
48367;SDS011;34173;47.446;18.912;2022-10-20T10:00:38;4.55;;;2.55;;
48367;SDS011;34173;47.446;18.912;2022-10-20T10:03:19;6.18;;;2.15;;
48367;SDS011;34173;47.446;18.912;2022-10-20T10:05:48;4.75;;;2.28;;
48367;SDS011;34173;47.446;18.912;2022-10-20T10:08:20;6.05;;;2.30;;
48367;SDS011;34173;47.446;18.912;2022-10-20T10:10:56;6.25;;;2.50;;
48367;SDS011;34173;47.446;18.912;2022-10-20T10:13:26;4.55;;;2.03;;
48367;SDS011;34173;47.446;18.912;2022-10-20T10:16:00;7.90;;;2.62;;
48367;SDS011;34173;47.446;18.912;2022-10-20T10:18:38;5.40;;;2.47;;
48367;SDS011;34173;47.446;18.912;2022-10-20T10:21:06;4.90;;;3.00;;
48367;SDS011;34173;47.446;18.912;2022-10-20T10:23:36;5.28;;;2.50;;
48367;SDS011;34173;47.446;18.912;2022-10-20T10:29:28;5.62;;;2.83;;
48367;SDS011;34173;47.446;18.912;2022-10-20T10:37:12;4.43;;;2.42;;
48367;SDS011;34173;47.446;18.912;2022-10-20T10:39:41;5.90;;;2.67;;
48367;SDS011;34173;47.446;18.912;2022-10-20T10:45:18;6.57;;;3.00;;
48367;SDS011;34173;47.446;18.912;2022-10-20T10:48:02;6.00;;;2.87;;
48367;SDS011;34173;47.446;18.912;2022-10-20T10:50:49;6.00;;;2.60;;
48367;SDS011;34173;47.446;18.912;2022-10-20T10:58:53;4.72;;;2.22;;
48367;SDS011;34173;47.446;18.912;2022-10-20T11:15:21;3.95;;;1.95;;
48367;SDS011;34173;47.446;18.912;2022-10-20T11:23:56;5.07;;;2.40;;
48367;SDS011;34173;47.446;18.912;2022-10-20T11:26:45;5.72;;;2.30;;
48367;SDS011;34173;47.446;18.912;2022-10-20T11:29:15;4.50;;;2.00;;
48367;SDS011;34173;47.446;18.912;2022-10-20T11:32:08;5.93;;;1.75;;
48367;SDS011;34173;47.446;18.912;2022-10-20T11:37:38;5.25;;;1.98;;
48367;SDS011;34173;47.446;18.912;2022-10-20T11:40:26;5.15;;;2.35;;
48367;SDS011;34173;47.446;18.912;2022-10-20T11:43:09;4.20;;;2.20;;
48367;SDS011;34173;47.446;18.912;2022-10-20T11:45:50;4.45;;;2.25;;
48367;SDS011;34173;47.446;18.912;2022-10-20T11:48:25;6.32;;;2.30;;
48367;SDS011;34173;47.446;18.912;2022-10-20T11:53:41;5.93;;;2.53;;
48367;SDS011;34173;47.446;18.912;2022-10-20T12:22:35;6.75;;;2.80;;
48367;SDS011;34173;47.446;18.912;2022-10-20T12:27:33;14.45;;;3.83;;
48367;SDS011;34173;47.446;18.912;2022-10-20T12:33:17;4.50;;;2.65;;
48367;SDS011;34173;47.446;18.912;2022-10-20T12:41:41;7.72;;;2.60;;
48367;SDS011;34173;47.446;18.912;2022-10-20T12:44:15;5.65;;;2.45;;
48367;SDS011;34173;47.446;18.912;2022-10-20T12:46:52;4.32;;;2.03;;
48367;SDS011;34173;47.446;18.912;2022-10-20T12:49:31;4.72;;;1.98;;
48367;SDS011;34173;47.446;18.912;2022-10-20T12:52:01;6.75;;;2.10;;
48367;SDS011;34173;47.446;18.912;2022-10-20T12:57:02;3.72;;;1.60;;
48367;SDS011;34173;47.446;18.912;2022-10-20T12:59:33;4.85;;;1.90;;
48367;SDS011;34173;47.446;18.912;2022-10-20T13:12:53;4.80;;;2.10;;
48367;SDS011;34173;47.446;18.912;2022-10-20T13:15:24;5.18;;;2.35;;
48367;SDS011;34173;47.446;18.912;2022-10-20T13:17:54;5.57;;;2.08;;
48367;SDS011;34173;47.446;18.912;2022-10-20T13:20:27;3.75;;;1.80;;
48367;SDS011;34173;47.446;18.912;2022-10-20T13:23:03;3.58;;;1.87;;
48367;SDS011;34173;47.446;18.912;2022-10-20T13:25:32;4.35;;;1.90;;
48367;SDS011;34173;47.446;18.912;2022-10-20T13:28:06;5.72;;;2.20;;
48367;SDS011;34173;47.446;18.912;2022-10-20T13:30:34;4.60;;;1.80;;
48367;SDS011;34173;47.446;18.912;2022-10-20T13:33:05;5.15;;;1.90;;
48367;SDS011;34173;47.446;18.912;2022-10-20T13:36:01;3.42;;;1.60;;
48367;SDS011;34173;47.446;18.912;2022-10-20T13:41:48;3.30;;;1.80;;
48367;SDS011;34173;47.446;18.912;2022-10-20T13:44:09;4.53;;;1.85;;
48367;SDS011;34173;47.446;18.912;2022-10-20T13:49:53;5.53;;;2.10;;
48367;SDS011;34173;47.446;18.912;2022-10-20T13:52:33;3.75;;;2.28;;
48367;SDS011;34173;47.446;18.912;2022-10-20T13:55:03;5.25;;;2.33;;
48367;SDS011;34173;47.446;18.912;2022-10-20T13:57:34;5.57;;;2.17;;
48367;SDS011;34173;47.446;18.912;2022-10-20T14:00:04;6.15;;;1.85;;
48367;SDS011;34173;47.446;18.912;2022-10-20T14:02:51;2.97;;;1.70;;
48367;SDS011;34173;47.446;18.912;2022-10-20T14:05:23;6.50;;;2.00;;
48367;SDS011;34173;47.446;18.912;2022-10-20T14:07:52;7.68;;;2.30;;
48367;SDS011;34173;47.446;18.912;2022-10-20T14:12:48;5.43;;;1.90;;
48367;SDS011;34173;47.446;18.912;2022-10-20T14:15:18;3.05;;;1.80;;
48367;SDS011;34173;47.446;18.912;2022-10-20T14:18:00;3.55;;;1.77;;
48367;SDS011;34173;47.446;18.912;2022-10-20T14:20:30;5.07;;;1.90;;
48367;SDS011;34173;47.446;18.912;2022-10-20T14:22:59;6.32;;;2.28;;
48367;SDS011;34173;47.446;18.912;2022-10-20T14:25:28;5.25;;;2.17;;
48367;SDS011;34173;47.446;18.912;2022-10-20T14:27:57;6.95;;;2.15;;
48367;SDS011;34173;47.446;18.912;2022-10-20T14:30:26;3.00;;;1.70;;
48367;SDS011;34173;47.446;18.912;2022-10-20T14:32:54;7.75;;;1.87;;
48367;SDS011;34173;47.446;18.912;2022-10-20T14:35:23;3.70;;;1.90;;
48367;SDS011;34173;47.446;18.912;2022-10-20T14:38:02;3.65;;;1.90;;
48367;SDS011;34173;47.446;18.912;2022-10-20T14:40:48;3.92;;;1.92;;
48367;SDS011;34173;47.446;18.912;2022-10-20T14:43:22;5.72;;;1.95;;
48367;SDS011;34173;47.446;18.912;2022-10-20T14:45:53;3.75;;;1.75;;
48367;SDS011;34173;47.446;18.912;2022-10-20T14:48:22;6.15;;;2.30;;
48367;SDS011;34173;47.446;18.912;2022-10-20T14:50:51;5.03;;;2.28;;
48367;SDS011;34173;47.446;18.912;2022-10-20T14:55:59;4.50;;;2.20;;
48367;SDS011;34173;47.446;18.912;2022-10-20T15:01:20;12.85;;;2.15;;
48367;SDS011;34173;47.446;18.912;2022-10-20T15:06:36;4.57;;;2.22;;
48367;SDS011;34173;47.446;18.912;2022-10-20T15:09:04;3.87;;;2.37;;
48367;SDS011;34173;47.446;18.912;2022-10-20T15:11:33;6.75;;;2.33;;
48367;SDS011;34173;47.446;18.912;2022-10-20T15:14:00;6.15;;;3.12;;
48367;SDS011;34173;47.446;18.912;2022-10-20T15:16:41;7.85;;;3.00;;
48367;SDS011;34173;47.446;18.912;2022-10-20T15:24:34;12.77;;;3.17;;
48367;SDS011;34173;47.446;18.912;2022-10-20T15:27:02;5.93;;;2.45;;
48367;SDS011;34173;47.446;18.912;2022-10-20T15:29:31;7.10;;;3.05;;
48367;SDS011;34173;47.446;18.912;2022-10-20T15:31:59;5.82;;;2.47;;
48367;SDS011;34173;47.446;18.912;2022-10-20T15:34:27;8.23;;;2.95;;
48367;SDS011;34173;47.446;18.912;2022-10-20T15:36:54;9.50;;;3.15;;
48367;SDS011;34173;47.446;18.912;2022-10-20T15:39:21;9.80;;;3.70;;
48367;SDS011;34173;47.446;18.912;2022-10-20T15:41:49;8.65;;;3.03;;
48367;SDS011;34173;47.446;18.912;2022-10-20T15:44:20;7.53;;;3.25;;
48367;SDS011;34173;47.446;18.912;2022-10-20T15:46:49;6.25;;;2.60;;
48367;SDS011;34173;47.446;18.912;2022-10-20T15:49:19;7.93;;;2.97;;
48367;SDS011;34173;47.446;18.912;2022-10-20T15:51:47;9.82;;;3.75;;
48367;SDS011;34173;47.446;18.912;2022-10-20T15:54:17;9.85;;;3.72;;
48367;SDS011;34173;47.446;18.912;2022-10-20T15:56:46;7.55;;;3.92;;
48367;SDS011;34173;47.446;18.912;2022-10-20T15:59:14;11.12;;;3.75;;
48367;SDS011;34173;47.446;18.912;2022-10-20T16:01:42;11.63;;;4.12;;
48367;SDS011;34173;47.446;18.912;2022-10-20T16:04:20;9.38;;;4.80;;
48367;SDS011;34173;47.446;18.912;2022-10-20T16:06:50;16.50;;;9.70;;
48367;SDS011;34173;47.446;18.912;2022-10-20T16:09:26;21.62;;;11.98;;
48367;SDS011;34173;47.446;18.912;2022-10-20T16:11:54;20.80;;;13.02;;
48367;SDS011;34173;47.446;18.912;2022-10-20T16:14:21;42.03;;;21.25;;
48367;SDS011;34173;47.446;18.912;2022-10-20T16:16:49;40.92;;;23.45;;
48367;SDS011;34173;47.446;18.912;2022-10-20T16:19:16;144.27;;;68.32;;
48367;SDS011;34173;47.446;18.912;2022-10-20T16:21:44;139.12;;;67.37;;
48367;SDS011;34173;47.446;18.912;2022-10-20T16:24:12;124.28;;;64.10;;
48367;SDS011;34173;47.446;18.912;2022-10-20T16:26:41;118.80;;;62.05;;
48367;SDS011;34173;47.446;18.912;2022-10-20T16:29:08;108.55;;;58.47;;
48367;SDS011;34173;47.446;18.912;2022-10-20T16:31:36;149.15;;;72.20;;
48367;SDS011;34173;47.446;18.912;2022-10-20T16:34:04;122.07;;;64.40;;
48367;SDS011;34173;47.446;18.912;2022-10-20T16:36:31;104.18;;;54.70;;
48367;SDS011;34173;47.446;18.912;2022-10-20T16:38:59;78.85;;;43.35;;
48367;SDS011;34173;47.446;18.912;2022-10-20T16:41:26;126.28;;;74.90;;
48367;SDS011;34173;47.446;18.912;2022-10-20T16:43:54;81.22;;;55.40;;
48367;SDS011;34173;47.446;18.912;2022-10-20T16:46:27;65.70;;;45.38;;
48367;SDS011;34173;47.446;18.912;2022-10-20T16:48:54;50.03;;;33.97;;
48367;SDS011;34173;47.446;18.912;2022-10-20T16:51:23;42.03;;;26.10;;
48367;SDS011;34173;47.446;18.912;2022-10-20T16:53:52;46.83;;;25.73;;
48367;SDS011;34173;47.446;18.912;2022-10-20T16:56:23;43.70;;;24.95;;
48367;SDS011;34173;47.446;18.912;2022-10-20T16:58:51;38.30;;;23.40;;
48367;SDS011;34173;47.446;18.912;2022-10-20T17:01:19;36.80;;;22.55;;
48367;SDS011;34173;47.446;18.912;2022-10-20T17:03:48;40.83;;;24.60;;
48367;SDS011;34173;47.446;18.912;2022-10-20T17:06:19;40.92;;;24.77;;
48367;SDS011;34173;47.446;18.912;2022-10-20T17:08:47;46.47;;;26.27;;
48367;SDS011;34173;47.446;18.912;2022-10-20T17:11:16;40.55;;;25.45;;
48367;SDS011;34173;47.446;18.912;2022-10-20T17:13:45;39.63;;;25.52;;
48367;SDS011;34173;47.446;18.912;2022-10-20T17:16:14;47.20;;;25.12;;
48367;SDS011;34173;47.446;18.912;2022-10-20T17:18:43;40.38;;;26.40;;